sensor_id;sensor_type;location;lat;lon;timestamp;pressure;altitude;pressure_sealevel;temperature;humidity
18858;BME280;9558;50.178;8.370;2023-05-16T00:00:46;98014.28;;;11.71;100.00
18858;BME280;9558;50.178;8.370;2023-05-16T00:03:33;98016.63;;;11.66;100.00
18858;BME280;9558;50.178;8.370;2023-05-16T00:06:21;98009.22;;;11.63;100.00
18858;BME280;9558;50.178;8.370;2023-05-16T00:09:08;98014.78;;;11.59;100.00
18858;BME280;9558;50.178;8.370;2023-05-16T00:11:54;98011.41;;;11.59;100.00
18858;BME280;9558;50.178;8.370;2023-05-16T00:14:43;98009.00;;;11.57;100.00
18858;BME280;9558;50.178;8.370;2023-05-16T00:17:30;98010.56;;;11.58;100.00
18858;BME280;9558;50.178;8.370;2023-05-16T00:20:17;98013.16;;;11.58;100.00
18858;BME280;9558;50.178;8.370;2023-05-16T00:23:07;98014.19;;;11.57;100.00
18858;BME280;9558;50.178;8.370;2023-05-16T00:25:54;98005.78;;;11.55;100.00
18858;BME280;9558;50.178;8.370;2023-05-16T00:28:41;98014.19;;;11.57;100.00
18858;BME280;9558;50.178;8.370;2023-05-16T00:31:29;98014.19;;;11.57;100.00
18858;BME280;9558;50.178;8.370;2023-05-16T00:34:16;98010.56;;;11.58;100.00
18858;BME280;9558;50.178;8.370;2023-05-16T00:37:03;98012.97;;;11.60;100.00
18858;BME280;9558;50.178;8.370;2023-05-16T00:39:49;98015.38;;;11.62;100.00
18858;BME280;9558;50.178;8.370;2023-05-16T00:42:37;98009.84;;;11.65;100.00
18858;BME280;9558;50.178;8.370;2023-05-16T00:45:24;98009.47;;;11.68;100.00
18858;BME280;9558;50.178;8.370;2023-05-16T00:48:13;98009.47;;;11.68;100.00
18858;BME280;9558;50.178;8.370;2023-05-16T00:51:01;98011.69;;;11.71;100.00
18858;BME280;9558;50.178;8.370;2023-05-16T00:53:48;98007.50;;;11.70;100.00
18858;BME280;9558;50.178;8.370;2023-05-16T00:56:34;98017.06;;;11.69;100.00
18858;BME280;9558;50.178;8.370;2023-05-16T00:59:22;98011.06;;;11.69;100.00
18858;BME280;9558;50.178;8.370;2023-05-16T01:02:09;98015.09;;;11.71;100.00
18858;BME280;9558;50.178;8.370;2023-05-16T01:04:57;98014.28;;;11.71;100.00
18858;BME280;9558;50.178;8.370;2023-05-16T01:07:44;98015.91;;;11.72;100.00
18858;BME280;9558;50.178;8.370;2023-05-16T01:10:36;98025.25;;;11.73;100.00
18858;BME280;9558;50.178;8.370;2023-05-16T01:13:30;98024.66;;;11.71;100.00
18858;BME280;9558;50.178;8.370;2023-05-16T01:16:21;98020.47;;;11.70;100.00
18858;BME280;9558;50.178;8.370;2023-05-16T01:19:18;98011.69;;;11.71;100.00
18858;BME280;9558;50.178;8.370;2023-05-16T01:22:13;98011.31;;;11.74;100.00
18858;BME280;9558;50.178;8.370;2023-05-16T01:25:05;98015.91;;;11.72;100.00
18858;BME280;9558;50.178;8.370;2023-05-16T01:27:58;98010.09;;;11.70;100.00
18858;BME280;9558;50.178;8.370;2023-05-16T01:30:46;98026.63;;;11.69;100.00
18858;BME280;9558;50.178;8.370;2023-05-16T01:33:33;98023.88;;;11.70;100.00
18858;BME280;9558;50.178;8.370;2023-05-16T01:36:24;98022.63;;;11.66;100.00
18858;BME280;9558;50.178;8.370;2023-05-16T01:39:16;98025.41;;;11.65;100.00
18858;BME280;9558;50.178;8.370;2023-05-16T01:42:08;98025.03;;;11.68;100.00
18858;BME280;9558;50.178;8.370;2023-05-16T01:45:01;98038.59;;;11.70;100.00
18858;BME280;9558;50.178;8.370;2023-05-16T01:47:57;98033.41;;;11.70;100.00
18858;BME280;9558;50.178;8.370;2023-05-16T01:50:52;98033.78;;;11.67;100.00
18858;BME280;9558;50.178;8.370;2023-05-16T01:53:40;98028.00;;;11.65;100.00
18858;BME280;9558;50.178;8.370;2023-05-16T01:56:30;98025.75;;;11.62;100.00
18858;BME280;9558;50.178;8.370;2023-05-16T01:59:19;98028.19;;;11.63;100.00
18858;BME280;9558;50.178;8.370;2023-05-16T02:02:07;98031.75;;;11.62;100.00
18858;BME280;9558;50.178;8.370;2023-05-16T02:04:54;98028.34;;;11.62;100.00
18858;BME280;9558;50.178;8.370;2023-05-16T02:07:41;98026.94;;;11.59;100.00
18858;BME280;9558;50.178;8.370;2023-05-16T02:10:28;98030.06;;;11.54;100.00
18858;BME280;9558;50.178;8.370;2023-05-16T02:13:15;98017.31;;;11.53;100.00
18858;BME280;9558;50.178;8.370;2023-05-16T02:16:02;98033.69;;;11.53;100.00
18858;BME280;9558;50.178;8.370;2023-05-16T02:18:51;98035.81;;;11.50;100.00
18858;BME280;9558;50.178;8.370;2023-05-16T02:21:37;98028.41;;;11.47;100.00
18858;BME280;9558;50.178;8.370;2023-05-16T02:24:24;98043.69;;;11.41;100.00
18858;BME280;9558;50.178;8.370;2023-05-16T02:27:11;98035.88;;;11.35;100.00
18858;BME280;9558;50.178;8.370;2023-05-16T02:29:58;98039.44;;;11.34;100.00
18858;BME280;9558;50.178;8.370;2023-05-16T02:32:44;98042.66;;;11.36;100.00
18858;BME280;9558;50.178;8.370;2023-05-16T02:35:32;98039.00;;;11.30;100.00
18858;BME280;9558;50.178;8.370;2023-05-16T02:38:19;98041.59;;;11.30;100.00
18858;BME280;9558;50.178;8.370;2023-05-16T02:41:06;98045.00;;;11.31;100.00
18858;BME280;9558;50.178;8.370;2023-05-16T02:43:53;98046.63;;;11.32;100.00
18858;BME280;9558;50.178;8.370;2023-05-16T02:46:40;98046.63;;;11.32;100.00
18858;BME280;9558;50.178;8.370;2023-05-16T02:49:26;98047.22;;;11.34;100.00
18858;BME280;9558;50.178;8.370;2023-05-16T02:52:14;98047.66;;;11.37;100.00
18858;BME280;9558;50.178;8.370;2023-05-16T02:55:01;98050.25;;;11.37;100.00
18858;BME280;9558;50.178;8.370;2023-05-16T02:57:48;98053.09;;;11.43;100.00
18858;BME280;9558;50.178;8.370;2023-05-16T03:00:35;98048.28;;;11.39;100.00
18858;BME280;9558;50.178;8.370;2023-05-16T03:03:22;98054.25;;;11.40;100.00
18858;BME280;9558;50.178;8.370;2023-05-16T03:06:09;98050.69;;;11.41;100.00
18858;BME280;9558;50.178;8.370;2023-05-16T03:08:57;98044.25;;;11.37;100.00
18858;BME280;9558;50.178;8.370;2023-05-16T03:11:44;98047.47;;;11.39;100.00
18858;BME280;9558;50.178;8.370;2023-05-16T03:14:31;98056.84;;;11.40;100.00
18858;BME280;9558;50.178;8.370;2023-05-16T03:17:17;98053.81;;;11.36;100.00
18858;BME280;9558;50.178;8.370;2023-05-16T03:20:05;98058.56;;;11.33;100.00
18858;BME280;9558;50.178;8.370;2023-05-16T03:22:53;98057.78;;;11.32;100.00
18858;BME280;9558;50.178;8.370;2023-05-16T03:25:41;98066.50;;;11.31;100.00
18858;BME280;9558;50.178;8.370;2023-05-16T03:28:30;98062.16;;;11.32;100.00
18858;BME280;9558;50.178;8.370;2023-05-16T03:31:17;98063.31;;;11.29;100.00
18858;BME280;9558;50.178;8.370;2023-05-16T03:34:04;98061.88;;;11.27;100.00
18858;BME280;9558;50.178;8.370;2023-05-16T03:36:51;98061.28;;;11.24;100.00
18858;BME280;9558;50.178;8.370;2023-05-16T03:39:38;98058.50;;;11.26;100.00
18858;BME280;9558;50.178;8.370;2023-05-16T03:42:26;98057.25;;;11.22;100.00
18858;BME280;9558;50.178;8.370;2023-05-16T03:45:12;98058.22;;;11.21;100.00
18858;BME280;9558;50.178;8.370;2023-05-16T03:47:59;98054.84;;;11.20;100.00
18858;BME280;9558;50.178;8.370;2023-05-16T03:50:46;98061.19;;;11.18;100.00
18858;BME280;9558;50.178;8.370;2023-05-16T03:53:33;98061.75;;;11.13;100.00
18858;BME280;9558;50.178;8.370;2023-05-16T03:56:20;98060.56;;;11.16;100.00
18858;BME280;9558;50.178;8.370;2023-05-16T03:59:08;98060.56;;;11.16;100.00
18858;BME280;9558;50.178;8.370;2023-05-16T04:01:55;98064.94;;;11.15;100.00
18858;BME280;9558;50.178;8.370;2023-05-16T04:04:42;98072.72;;;11.15;100.00
18858;BME280;9558;50.178;8.370;2023-05-16T04:07:30;98069.75;;;11.18;100.00
18858;BME280;9558;50.178;8.370;2023-05-16T04:10:16;98070.72;;;11.17;100.00
18858;BME280;9558;50.178;8.370;2023-05-16T04:13:03;98079.13;;;11.19;100.00
18858;BME280;9558;50.178;8.370;2023-05-16T04:15:51;98077.34;;;11.20;100.00
18858;BME280;9558;50.178;8.370;2023-05-16T04:18:38;98072.16;;;11.20;100.00
18858;BME280;9558;50.178;8.370;2023-05-16T04:21:25;98077.34;;;11.20;100.00
18858;BME280;9558;50.178;8.370;2023-05-16T04:24:12;98085.13;;;11.20;100.00
18858;BME280;9558;50.178;8.370;2023-05-16T04:26:59;98090.28;;;11.20;100.00
18858;BME280;9558;50.178;8.370;2023-05-16T04:29:46;98085.94;;;11.20;100.00
18858;BME280;9558;50.178;8.370;2023-05-16T04:32:34;98088.16;;;11.23;100.00
18858;BME280;9558;50.178;8.370;2023-05-16T04:35:21;98085.56;;;11.23;100.00
18858;BME280;9558;50.178;8.370;2023-05-16T04:38:08;98094.59;;;11.28;100.00
18858;BME280;9558;50.178;8.370;2023-05-16T04:40:55;98095.38;;;11.28;100.00
18858;BME280;9558;50.178;8.370;2023-05-16T04:43:43;98094.22;;;11.31;100.00
18858;BME280;9558;50.178;8.370;2023-05-16T04:46:30;98098.34;;;11.25;100.00
18858;BME280;9558;50.178;8.370;2023-05-16T04:49:18;98099.50;;;11.22;100.00
18858;BME280;9558;50.178;8.370;2023-05-16T04:52:05;98103.06;;;11.21;100.00
18858;BME280;9558;50.178;8.370;2023-05-16T04:54:52;98109.06;;;11.22;100.00
18858;BME280;9558;50.178;8.370;2023-05-16T04:57:39;98104.69;;;11.22;100.00
18858;BME280;9558;50.178;8.370;2023-05-16T05:00:26;98113.41;;;11.21;100.00
18858;BME280;9558;50.178;8.370;2023-05-16T05:03:12;98110.84;;;11.21;100.00
18858;BME280;9558;50.178;8.370;2023-05-16T05:06:01;98118.34;;;11.16;100.00
18858;BME280;9558;50.178;8.370;2023-05-16T05:08:47;98116.56;;;11.17;100.00
18858;BME280;9558;50.178;8.370;2023-05-16T05:11:34;98118.19;;;11.18;100.00
18858;BME280;9558;50.178;8.370;2023-05-16T05:14:21;98121.56;;;11.18;100.00
18858;BME280;9558;50.178;8.370;2023-05-16T05:17:08;98127.72;;;11.17;100.00
18858;BME280;9558;50.178;8.370;2023-05-16T05:19:55;98133.25;;;11.14;100.00
18858;BME280;9558;50.178;8.370;2023-05-16T05:22:43;98142.66;;;11.15;100.00
18858;BME280;9558;50.178;8.370;2023-05-16T05:25:30;98135.84;;;11.14;100.00
18858;BME280;9558;50.178;8.370;2023-05-16T05:28:18;98151.38;;;11.14;100.00
18858;BME280;9558;50.178;8.370;2023-05-16T05:31:04;98160.16;;;11.13;100.00
18858;BME280;9558;50.178;8.370;2023-05-16T05:33:52;98148.63;;;11.01;100.00
18858;BME280;9558;50.178;8.370;2023-05-16T05:36:39;98146.41;;;10.98;100.00
18858;BME280;9558;50.178;8.370;2023-05-16T05:39:28;98154.16;;;10.98;100.00
18858;BME280;9558;50.178;8.370;2023-05-16T05:42:15;98152.56;;;10.97;100.00
18858;BME280;9558;50.178;8.370;2023-05-16T05:45:02;98145.75;;;10.96;100.00
18858;BME280;9558;50.178;8.370;2023-05-16T05:47:49;98156.59;;;10.99;100.00
18858;BME280;9558;50.178;8.370;2023-05-16T05:50:36;98168.69;;;10.99;100.00
18858;BME280;9558;50.178;8.370;2023-05-16T05:53:23;98159.00;;;11.01;100.00
18858;BME280;9558;50.178;8.370;2023-05-16T05:56:11;98163.00;;;11.03;100.00
18858;BME280;9558;50.178;8.370;2023-05-16T05:58:58;98159.88;;;11.08;100.00
18858;BME280;9558;50.178;8.370;2023-05-16T06:01:44;98167.94;;;11.13;100.00
18858;BME280;9558;50.178;8.370;2023-05-16T06:04:31;98166.56;;;11.17;100.00
18858;BME280;9558;50.178;8.370;2023-05-16T06:07:18;98173.38;;;11.18;100.00
18858;BME280;9558;50.178;8.370;2023-05-16T06:10:05;98175.06;;;11.26;100.00
18858;BME280;9558;50.178;8.370;2023-05-16T06:12:54;98180.06;;;11.28;100.00
18858;BME280;9558;50.178;8.370;2023-05-16T06:15:41;98179.25;;;11.27;100.00
18858;BME280;9558;50.178;8.370;2023-05-16T06:18:28;98174.53;;;11.31;100.00
18858;BME280;9558;50.178;8.370;2023-05-16T06:21:15;98185.78;;;11.38;100.00
18858;BME280;9558;50.178;8.370;2023-05-16T06:24:02;98180.59;;;11.38;100.00
18858;BME280;9558;50.178;8.370;2023-05-16T06:26:48;98183.44;;;11.43;100.00
18858;BME280;9558;50.178;8.370;2023-05-16T06:29:36;98188.81;;;11.41;100.00
18858;BME280;9558;50.178;8.370;2023-05-16T06:32:23;98191.50;;;11.33;100.00
18858;BME280;9558;50.178;8.370;2023-05-16T06:35:10;98203.66;;;11.33;100.00
18858;BME280;9558;50.178;8.370;2023-05-16T06:37:57;98204.97;;;11.29;100.00
18858;BME280;9558;50.178;8.370;2023-05-16T06:40:44;98208.47;;;11.21;100.00
18858;BME280;9558;50.178;8.370;2023-05-16T06:43:31;98207.41;;;11.15;100.00
18858;BME280;9558;50.178;8.370;2023-05-16T06:46:19;98210.41;;;11.04;100.00
18858;BME280;9558;50.178;8.370;2023-05-16T06:49:06;98214.88;;;10.95;100.00
18858;BME280;9558;50.178;8.370;2023-05-16T06:51:52;98211.91;;;10.83;100.00
18858;BME280;9558;50.178;8.370;2023-05-16T06:54:39;98212.94;;;10.74;100.00
18858;BME280;9558;50.178;8.370;2023-05-16T06:57:26;98210.28;;;10.67;100.00
18858;BME280;9558;50.178;8.370;2023-05-16T07:00:14;98223.38;;;10.66;100.00
18858;BME280;9558;50.178;8.370;2023-05-16T07:03:03;98219.19;;;10.65;100.00
18858;BME280;9558;50.178;8.370;2023-05-16T07:05:49;98218.28;;;10.58;100.00
18858;BME280;9558;50.178;8.370;2023-05-16T07:08:37;98227.97;;;10.55;100.00
18858;BME280;9558;50.178;8.370;2023-05-16T07:11:24;98234.41;;;10.60;100.00
18858;BME280;9558;50.178;8.370;2023-05-16T07:14:11;98235.38;;;10.59;100.00
18858;BME280;9558;50.178;8.370;2023-05-16T07:16:57;98226.47;;;10.61;100.00
18858;BME280;9558;50.178;8.370;2023-05-16T07:19:45;98232.00;;;10.58;100.00
18858;BME280;9558;50.178;8.370;2023-05-16T07:22:32;98245.91;;;10.57;100.00
18858;BME280;9558;50.178;8.370;2023-05-16T07:25:19;98240.75;;;10.57;100.00
18858;BME280;9558;50.178;8.370;2023-05-16T07:28:06;98237.34;;;10.57;100.00
18858;BME280;9558;50.178;8.370;2023-05-16T07:30:52;98244.81;;;10.51;100.00
18858;BME280;9558;50.178;8.370;2023-05-16T07:33:39;98252.16;;;10.48;100.00
18858;BME280;9558;50.178;8.370;2023-05-16T07:36:27;98249.06;;;10.44;100.00
18858;BME280;9558;50.178;8.370;2023-05-16T07:39:14;98257.97;;;10.42;100.00
18858;BME280;9558;50.178;8.370;2023-05-16T07:42:01;98267.25;;;10.36;100.00
18858;BME280;9558;50.178;8.370;2023-05-16T07:44:48;98269.84;;;10.36;100.00
18858;BME280;9558;50.178;8.370;2023-05-16T07:47:34;98275.03;;;10.36;100.00
18858;BME280;9558;50.178;8.370;2023-05-16T07:50:21;98272.09;;;10.31;100.00
18858;BME280;9558;50.178;8.370;2023-05-16T07:53:09;98279.56;;;10.26;100.00
18858;BME280;9558;50.178;8.370;2023-05-16T07:55:56;98285.56;;;10.26;100.00
18858;BME280;9558;50.178;8.370;2023-05-16T07:58:43;98284.56;;;10.27;100.00
18858;BME280;9558;50.178;8.370;2023-05-16T08:01:30;98293.94;;;10.28;100.00
18858;BME280;9558;50.178;8.370;2023-05-16T08:04:17;98286.66;;;10.32;100.00
18858;BME280;9558;50.178;8.370;2023-05-16T08:07:04;98289.72;;;10.35;100.00
18858;BME280;9558;50.178;8.370;2023-05-16T08:09:52;98286.63;;;10.40;100.00
18858;BME280;9558;50.178;8.370;2023-05-16T08:12:39;98295.47;;;10.46;100.00
18858;BME280;9558;50.178;8.370;2023-05-16T08:15:26;98298.38;;;10.51;100.00
18858;BME280;9558;50.178;8.370;2023-05-16T08:18:13;98308.25;;;10.47;100.00
18858;BME280;9558;50.178;8.370;2023-05-16T08:21:00;98316.66;;;10.49;100.00
18858;BME280;9558;50.178;8.370;2023-05-16T08:23:47;98321.81;;;10.49;100.00
18858;BME280;9558;50.178;8.370;2023-05-16T08:26:35;98324.72;;;10.54;100.00
18858;BME280;9558;50.178;8.370;2023-05-16T08:29:23;98319.69;;;10.53;100.00
18858;BME280;9558;50.178;8.370;2023-05-16T08:32:09;98317.59;;;10.57;100.00
18858;BME280;9558;50.178;8.370;2023-05-16T08:34:56;98322.75;;;10.57;100.00
18858;BME280;9558;50.178;8.370;2023-05-16T08:37:43;98334.38;;;10.61;100.00
18858;BME280;9558;50.178;8.370;2023-05-16T08:40:30;98328.69;;;10.65;100.00
18858;BME280;9558;50.178;8.370;2023-05-16T08:43:18;98337.38;;;10.72;100.00
18858;BME280;9558;50.178;8.370;2023-05-16T08:46:06;98335.94;;;10.70;100.00
18858;BME280;9558;50.178;8.370;2023-05-16T08:48:53;98336.22;;;10.75;100.00
18858;BME280;9558;50.178;8.370;2023-05-16T08:51:40;98340.47;;;10.68;99.33
18858;BME280;9558;50.178;8.370;2023-05-16T08:54:28;98334.16;;;10.70;98.75
18858;BME280;9558;50.178;8.370;2023-05-16T08:57:15;98336.84;;;10.77;100.00
18858;BME280;9558;50.178;8.370;2023-05-16T09:00:06;98337.16;;;10.82;100.00
18858;BME280;9558;50.178;8.370;2023-05-16T09:02:56;98339.88;;;10.89;100.00
18858;BME280;9558;50.178;8.370;2023-05-16T09:05:43;98337.44;;;10.87;99.90
18858;BME280;9558;50.178;8.370;2023-05-16T09:08:30;98344.88;;;10.91;99.84
18858;BME280;9558;50.178;8.370;2023-05-16T09:11:18;98344.41;;;10.87;98.45
18858;BME280;9558;50.178;8.370;2023-05-16T09:14:06;98349.13;;;10.83;98.70
18858;BME280;9558;50.178;8.370;2023-05-16T09:17:03;98354.38;;;10.67;97.39
18858;BME280;9558;50.178;8.370;2023-05-16T09:19:51;98354.75;;;10.64;97.93
18858;BME280;9558;50.178;8.370;2023-05-16T09:22:49;98360.25;;;10.61;97.66
18858;BME280;9558;50.178;8.370;2023-05-16T09:25:39;98361.75;;;10.55;96.91
18858;BME280;9558;50.178;8.370;2023-05-16T09:28:26;98365.47;;;10.52;97.36
18858;BME280;9558;50.178;8.370;2023-05-16T09:31:20;98366.78;;;10.48;96.48
18858;BME280;9558;50.178;8.370;2023-05-16T09:34:09;98362.25;;;10.50;96.67
18858;BME280;9558;50.178;8.370;2023-05-16T09:36:58;98370.03;;;10.50;96.99
18858;BME280;9558;50.178;8.370;2023-05-16T09:39:46;98373.59;;;10.49;96.59
18858;BME280;9558;50.178;8.370;2023-05-16T09:42:33;98378.41;;;10.52;96.25
18858;BME280;9558;50.178;8.370;2023-05-16T09:45:20;98371.63;;;10.51;94.60
18858;BME280;9558;50.178;8.370;2023-05-16T09:48:08;98370.63;;;10.61;94.75
18858;BME280;9558;50.178;8.370;2023-05-16T09:50:58;98367.19;;;10.60;92.10
18858;BME280;9558;50.178;8.370;2023-05-16T09:53:48;98370.88;;;10.66;92.02
18858;BME280;9558;50.178;8.370;2023-05-16T09:56:47;98362.91;;;10.76;91.30
18858;BME280;9558;50.178;8.370;2023-05-16T09:59:34;98363.47;;;10.86;91.20
18858;BME280;9558;50.178;8.370;2023-05-16T10:02:21;98374.09;;;10.99;89.38
18858;BME280;9558;50.178;8.370;2023-05-16T10:05:09;98362.47;;;11.18;89.39
18858;BME280;9558;50.178;8.370;2023-05-16T10:07:57;98374.28;;;11.36;89.45
18858;BME280;9558;50.178;8.370;2023-05-16T10:10:44;98369.34;;;11.49;87.29
18858;BME280;9558;50.178;8.370;2023-05-16T10:13:33;98369.25;;;11.57;82.97
18858;BME280;9558;50.178;8.370;2023-05-16T10:16:21;98375.06;;;11.59;79.88
18858;BME280;9558;50.178;8.370;2023-05-16T10:19:09;98376.56;;;11.54;81.54
18858;BME280;9558;50.178;8.370;2023-05-16T10:21:57;98374.44;;;11.57;81.52
18858;BME280;9558;50.178;8.370;2023-05-16T10:24:51;98383.47;;;11.62;81.49
18858;BME280;9558;50.178;8.370;2023-05-16T10:27:42;98378.91;;;11.64;81.30
18858;BME280;9558;50.178;8.370;2023-05-16T10:30:31;98372.47;;;11.59;78.27
18858;BME280;9558;50.178;8.370;2023-05-16T10:33:18;98376.94;;;11.66;78.52
18858;BME280;9558;50.178;8.370;2023-05-16T10:36:06;98373.19;;;11.68;78.26
18858;BME280;9558;50.178;8.370;2023-05-16T10:38:54;98376.75;;;11.67;76.01
18858;BME280;9558;50.178;8.370;2023-05-16T10:41:42;98372.16;;;11.78;77.90
18858;BME280;9558;50.178;8.370;2023-05-16T10:44:31;98367.50;;;11.88;78.76
18858;BME280;9558;50.178;8.370;2023-05-16T10:47:18;98363.66;;;11.99;78.72
18858;BME280;9558;50.178;8.370;2023-05-16T10:50:06;98375.31;;;12.03;76.10
18858;BME280;9558;50.178;8.370;2023-05-16T10:52:53;98374.25;;;12.12;77.13
18858;BME280;9558;50.178;8.370;2023-05-16T10:55:43;98377.72;;;12.19;76.83
18858;BME280;9558;50.178;8.370;2023-05-16T10:58:40;98371.34;;;12.37;76.12
18858;BME280;9558;50.178;8.370;2023-05-16T11:01:29;98373.84;;;12.45;73.30
18858;BME280;9558;50.178;8.370;2023-05-16T11:04:17;98375.03;;;12.64;71.65
18858;BME280;9558;50.178;8.370;2023-05-16T11:07:06;98366.28;;;12.87;71.76
18858;BME280;9558;50.178;8.370;2023-05-16T11:10:02;98378.72;;;13.13;73.08
18858;BME280;9558;50.178;8.370;2023-05-16T11:12:50;98376.38;;;13.40;72.55
18858;BME280;9558;50.178;8.370;2023-05-16T11:15:40;98374.56;;;13.62;71.10
18858;BME280;9558;50.178;8.370;2023-05-16T11:18:30;98376.28;;;13.83;71.20
18858;BME280;9558;50.178;8.370;2023-05-16T11:21:17;98372.69;;;13.84;65.29
18858;BME280;9558;50.178;8.370;2023-05-16T11:24:27;98377.97;;;13.97;67.06
18858;BME280;9558;50.178;8.370;2023-05-16T11:27:20;98381.22;;;14.06;66.44
18858;BME280;9558;50.178;8.370;2023-05-16T11:30:11;98387.91;;;14.22;66.63
18858;BME280;9558;50.178;8.370;2023-05-16T11:32:59;98382.75;;;14.35;66.06
18858;BME280;9558;50.178;8.370;2023-05-16T11:35:59;98396.63;;;14.49;63.05
18858;BME280;9558;50.178;8.370;2023-05-16T11:38:46;98381.41;;;14.53;59.09
18858;BME280;9558;50.178;8.370;2023-05-16T11:41:33;98373.69;;;14.66;59.20
18858;BME280;9558;50.178;8.370;2023-05-16T11:44:20;98383.94;;;14.75;57.83
18858;BME280;9558;50.178;8.370;2023-05-16T11:47:07;98374.53;;;14.80;57.33
18858;BME280;9558;50.178;8.370;2023-05-16T11:49:57;98378.31;;;14.84;55.20
18858;BME280;9558;50.178;8.370;2023-05-16T11:52:46;98375.34;;;14.88;55.75
18858;BME280;9558;50.178;8.370;2023-05-16T11:55:34;98373.53;;;14.88;55.63
18858;BME280;9558;50.178;8.370;2023-05-16T11:58:21;98382.38;;;15.00;57.05
18858;BME280;9558;50.178;8.370;2023-05-16T12:01:08;98381.16;;;15.03;53.85
18858;BME280;9558;50.178;8.370;2023-05-16T12:03:58;98385.00;;;15.00;52.81
18858;BME280;9558;50.178;8.370;2023-05-16T12:06:57;98379.78;;;15.07;54.55
18858;BME280;9558;50.178;8.370;2023-05-16T12:09:51;98388.59;;;15.13;52.90
18858;BME280;9558;50.178;8.370;2023-05-16T12:12:38;98377.78;;;15.23;53.58
18858;BME280;9558;50.178;8.370;2023-05-16T12:15:25;98386.19;;;15.31;51.72
18858;BME280;9558;50.178;8.370;2023-05-16T12:18:13;98380.81;;;15.26;50.82
18858;BME280;9558;50.178;8.370;2023-05-16T12:21:00;98387.22;;;15.24;52.26
18858;BME280;9558;50.178;8.370;2023-05-16T12:23:48;98385.59;;;15.16;52.65
18858;BME280;9558;50.178;8.370;2023-05-16T12:26:38;98383.19;;;15.08;50.69
18858;BME280;9558;50.178;8.370;2023-05-16T12:29:25;98369.53;;;15.06;51.62
18858;BME280;9558;50.178;8.370;2023-05-16T12:32:26;98379.56;;;15.02;50.00
18858;BME280;9558;50.178;8.370;2023-05-16T12:35:13;98377.38;;;15.06;51.07
18858;BME280;9558;50.178;8.370;2023-05-16T12:38:02;98367.94;;;15.11;51.34
18858;BME280;9558;50.178;8.370;2023-05-16T12:40:56;98383.41;;;15.19;48.25
18858;BME280;9558;50.178;8.370;2023-05-16T12:43:43;98381.59;;;15.40;50.86
18858;BME280;9558;50.178;8.370;2023-05-16T12:46:30;98374.38;;;15.55;51.23
18858;BME280;9558;50.178;8.370;2023-05-16T12:49:20;98385.59;;;15.69;50.13
18858;BME280;9558;50.178;8.370;2023-05-16T12:52:11;98387.22;;;15.84;50.61
18858;BME280;9558;50.178;8.370;2023-05-16T12:55:03;98395.25;;;15.89;49.74
18858;BME280;9558;50.178;8.370;2023-05-16T12:57:50;98397.66;;;15.91;48.97
18858;BME280;9558;50.178;8.370;2023-05-16T13:00:37;98391.19;;;15.93;49.00
18858;BME280;9558;50.178;8.370;2023-05-16T13:03:24;98410.09;;;15.82;47.45
18858;BME280;9558;50.178;8.370;2023-05-16T13:06:13;98417.31;;;15.66;45.85
18858;BME280;9558;50.178;8.370;2023-05-16T13:09:00;98394.81;;;15.59;46.78
18858;BME280;9558;50.178;8.370;2023-05-16T13:11:47;98394.84;;;15.65;48.62
18858;BME280;9558;50.178;8.370;2023-05-16T13:14:34;98388.38;;;15.75;49.35
18858;BME280;9558;50.178;8.370;2023-05-16T13:17:21;98406.69;;;15.88;48.89
18858;BME280;9558;50.178;8.370;2023-05-16T13:20:09;98395.41;;;15.94;48.00
18858;BME280;9558;50.178;8.370;2023-05-16T13:23:00;98399.00;;;16.06;48.04
18858;BME280;9558;50.178;8.370;2023-05-16T13:25:47;98397.53;;;16.24;49.19
18858;BME280;9558;50.178;8.370;2023-05-16T13:28:34;98386.25;;;16.37;48.74
18858;BME280;9558;50.178;8.370;2023-05-16T13:31:20;98397.13;;;16.34;47.69
18858;BME280;9558;50.178;8.370;2023-05-16T13:34:07;98419.28;;;16.18;45.51
18858;BME280;9558;50.178;8.370;2023-05-16T13:36:54;98414.69;;;16.00;44.35
18858;BME280;9558;50.178;8.370;2023-05-16T13:39:42;98414.50;;;15.88;45.88
18858;BME280;9558;50.178;8.370;2023-05-16T13:42:29;98412.72;;;15.82;46.95
18858;BME280;9558;50.178;8.370;2023-05-16T13:45:16;98414.72;;;15.80;46.90
18858;BME280;9558;50.178;8.370;2023-05-16T13:48:04;98413.09;;;15.65;45.67
18858;BME280;9558;50.178;8.370;2023-05-16T13:50:51;98418.50;;;15.57;45.40
18858;BME280;9558;50.178;8.370;2023-05-16T13:53:40;98423.13;;;15.55;47.36
18858;BME280;9558;50.178;8.370;2023-05-16T13:56:28;98428.34;;;15.55;47.28
18858;BME280;9558;50.178;8.370;2023-05-16T13:59:15;98436.19;;;15.55;47.17
18858;BME280;9558;50.178;8.370;2023-05-16T14:02:02;98425.13;;;15.60;46.56
18858;BME280;9558;50.178;8.370;2023-05-16T14:04:49;98437.16;;;15.54;46.28
18858;BME280;9558;50.178;8.370;2023-05-16T14:07:36;98436.19;;;15.55;47.08
18858;BME280;9558;50.178;8.370;2023-05-16T14:10:23;98434.56;;;15.47;47.17
18858;BME280;9558;50.178;8.370;2023-05-16T14:13:12;98431.53;;;15.37;46.02
18858;BME280;9558;50.178;8.370;2023-05-16T14:15:58;98420.72;;;15.33;45.88
18858;BME280;9558;50.178;8.370;2023-05-16T14:18:46;98418.91;;;15.47;47.29
18858;BME280;9558;50.178;8.370;2023-05-16T14:21:33;98425.34;;;15.58;45.67
18858;BME280;9558;50.178;8.370;2023-05-16T14:24:20;98421.13;;;15.70;46.48
18858;BME280;9558;50.178;8.370;2023-05-16T14:27:07;98424.53;;;15.91;47.06
18858;BME280;9558;50.178;8.370;2023-05-16T14:29:55;98418.91;;;16.08;46.28
18858;BME280;9558;50.178;8.370;2023-05-16T14:32:43;98432.13;;;16.13;46.23
18858;BME280;9558;50.178;8.370;2023-05-16T14:35:30;98432.53;;;16.10;45.63
18858;BME280;9558;50.178;8.370;2023-05-16T14:38:17;98424.91;;;16.08;45.56
18858;BME280;9558;50.178;8.370;2023-05-16T14:41:03;98417.88;;;16.09;44.31
18858;BME280;9558;50.178;8.370;2023-05-16T14:43:50;98411.22;;;16.13;45.95
18858;BME280;9558;50.178;8.370;2023-05-16T14:46:38;98416.22;;;16.28;46.52
18858;BME280;9558;50.178;8.370;2023-05-16T14:49:25;98422.59;;;16.38;45.23
18858;BME280;9558;50.178;8.370;2023-05-16T14:52:12;98434.84;;;16.45;45.43
18858;BME280;9558;50.178;8.370;2023-05-16T14:54:59;98436.44;;;16.46;43.43